sensor_id;sensor_type;location;lat;lon;timestamp;pressure;altitude;pressure_sealevel;temperature;humidity
4981;BME280;2507;50.392;7.482;2024-01-25T00:00:14;101948.59;;;11.26;57.20
4981;BME280;2507;50.392;7.482;2024-01-25T00:02:39;101947.91;;;11.23;57.56
4981;BME280;2507;50.392;7.482;2024-01-25T00:05:05;101948.81;;;11.22;57.64
4981;BME280;2507;50.392;7.482;2024-01-25T00:07:30;101941.03;;;11.20;57.71
4981;BME280;2507;50.392;7.482;2024-01-25T00:09:55;101943.75;;;11.19;57.79
4981;BME280;2507;50.392;7.482;2024-01-25T00:12:22;101939.63;;;11.30;57.42
4981;BME280;2507;50.392;7.482;2024-01-25T00:14:48;101943.78;;;11.34;57.50
4981;BME280;2507;50.392;7.482;2024-01-25T00:17:13;101928.84;;;11.19;57.93
4981;BME280;2507;50.392;7.482;2024-01-25T00:19:38;101936.50;;;11.07;58.45
4981;BME280;2507;50.392;7.482;2024-01-25T00:22:05;101933.78;;;11.08;58.02
4981;BME280;2507;50.392;7.482;2024-01-25T00:24:30;101932.94;;;11.08;58.08
4981;BME280;2507;50.392;7.482;2024-01-25T00:26:55;101928.94;;;11.01;58.33
4981;BME280;2507;50.392;7.482;2024-01-25T00:29:20;101926.69;;;11.10;58.16
4981;BME280;2507;50.392;7.482;2024-01-25T00:31:46;101923.38;;;11.07;58.05
4981;BME280;2507;50.392;7.482;2024-01-25T00:34:11;101925.63;;;10.97;58.41
4981;BME280;2507;50.392;7.482;2024-01-25T00:36:36;101918.59;;;10.98;58.35
4981;BME280;2507;50.392;7.482;2024-01-25T00:39:02;101904.53;;;10.99;58.21
4981;BME280;2507;50.392;7.482;2024-01-25T00:41:30;101921.06;;;11.01;58.58
4981;BME280;2507;50.392;7.482;2024-01-25T00:43:57;101933.25;;;11.02;58.40
4981;BME280;2507;50.392;7.482;2024-01-25T00:46:22;101930.56;;;11.03;58.07
4981;BME280;2507;50.392;7.482;2024-01-25T00:48:48;101929.00;;;10.99;58.44
4981;BME280;2507;50.392;7.482;2024-01-25T00:51:15;101929.41;;;10.92;58.91
4981;BME280;2507;50.392;7.482;2024-01-25T00:53:41;101930.19;;;10.94;58.43
4981;BME280;2507;50.392;7.482;2024-01-25T00:56:07;101936.72;;;11.02;58.23
4981;BME280;2507;50.392;7.482;2024-01-25T00:58:33;101937.34;;;11.07;58.28
4981;BME280;2507;50.392;7.482;2024-01-25T01:00:58;101926.22;;;11.02;58.53
4981;BME280;2507;50.392;7.482;2024-01-25T01:03:24;101944.84;;;10.98;58.35
4981;BME280;2507;50.392;7.482;2024-01-25T01:05:49;101940.44;;;10.98;58.57
4981;BME280;2507;50.392;7.482;2024-01-25T01:08:15;101944.38;;;11.07;58.37
4981;BME280;2507;50.392;7.482;2024-01-25T01:10:40;101953.91;;;10.92;59.07
4981;BME280;2507;50.392;7.482;2024-01-25T01:13:05;101955.88;;;10.87;59.44
4981;BME280;2507;50.392;7.482;2024-01-25T01:15:31;101956.81;;;11.03;59.09
4981;BME280;2507;50.392;7.482;2024-01-25T01:17:56;101955.38;;;10.98;59.38
4981;BME280;2507;50.392;7.482;2024-01-25T01:20:21;101957.28;;;10.94;59.57
4981;BME280;2507;50.392;7.482;2024-01-25T01:22:47;101954.72;;;10.93;59.52
4981;BME280;2507;50.392;7.482;2024-01-25T01:25:12;101957.03;;;10.82;60.17
4981;BME280;2507;50.392;7.482;2024-01-25T01:27:37;101952.44;;;10.87;60.12
4981;BME280;2507;50.392;7.482;2024-01-25T01:30:03;101958.38;;;10.90;59.93
4981;BME280;2507;50.392;7.482;2024-01-25T01:32:28;101970.72;;;10.88;60.23
4981;BME280;2507;50.392;7.482;2024-01-25T01:34:54;101973.78;;;10.96;59.64
4981;BME280;2507;50.392;7.482;2024-01-25T01:37:19;101973.09;;;10.93;59.83
4981;BME280;2507;50.392;7.482;2024-01-25T01:39:44;101981.44;;;10.84;59.95
4981;BME280;2507;50.392;7.482;2024-01-25T01:42:09;101978.75;;;10.85;59.56
4981;BME280;2507;50.392;7.482;2024-01-25T01:44:35;101970.13;;;10.83;59.58
4981;BME280;2507;50.392;7.482;2024-01-25T01:47:00;101974.97;;;10.91;59.67
4981;BME280;2507;50.392;7.482;2024-01-25T01:49:25;101984.03;;;10.85;59.46
4981;BME280;2507;50.392;7.482;2024-01-25T01:51:51;101984.84;;;10.86;59.47
4981;BME280;2507;50.392;7.482;2024-01-25T01:54:17;101989.28;;;10.85;59.46
4981;BME280;2507;50.392;7.482;2024-01-25T01:56:42;101984.72;;;10.89;59.63
4981;BME280;2507;50.392;7.482;2024-01-25T01:59:10;101991.72;;;10.88;59.46
4981;BME280;2507;50.392;7.482;2024-01-25T02:01:36;101997.59;;;10.93;59.66
4981;BME280;2507;50.392;7.482;2024-01-25T02:04:01;102002.19;;;11.07;59.09
4981;BME280;2507;50.392;7.482;2024-01-25T02:06:27;101998.59;;;11.08;59.28
4981;BME280;2507;50.392;7.482;2024-01-25T02:08:52;101990.81;;;11.23;58.90
4981;BME280;2507;50.392;7.482;2024-01-25T02:11:21;101994.91;;;11.29;58.70
4981;BME280;2507;50.392;7.482;2024-01-25T02:13:46;102016.63;;;11.32;58.51
4981;BME280;2507;50.392;7.482;2024-01-25T02:16:12;102015.28;;;11.41;58.25
4981;BME280;2507;50.392;7.482;2024-01-25T02:18:40;102008.88;;;11.47;58.42
4981;BME280;2507;50.392;7.482;2024-01-25T02:21:05;102019.00;;;11.54;58.26
4981;BME280;2507;50.392;7.482;2024-01-25T02:23:31;102007.00;;;11.49;58.26
4981;BME280;2507;50.392;7.482;2024-01-25T02:25:56;102011.31;;;11.50;58.10
4981;BME280;2507;50.392;7.482;2024-01-25T02:28:21;102014.50;;;11.56;58.12
4981;BME280;2507;50.392;7.482;2024-01-25T02:30:46;102011.38;;;11.32;58.55
4981;BME280;2507;50.392;7.482;2024-01-25T02:33:12;102015.22;;;11.25;59.23
4981;BME280;2507;50.392;7.482;2024-01-25T02:35:37;102016.16;;;11.42;58.93
4981;BME280;2507;50.392;7.482;2024-01-25T02:38:03;102004.41;;;11.31;59.04
4981;BME280;2507;50.392;7.482;2024-01-25T02:40:29;102011.13;;;11.20;59.53
4981;BME280;2507;50.392;7.482;2024-01-25T02:42:54;102009.81;;;11.28;59.46
4981;BME280;2507;50.392;7.482;2024-01-25T02:45:19;102005.72;;;11.23;59.18
4981;BME280;2507;50.392;7.482;2024-01-25T02:47:44;102010.69;;;11.29;59.64
4981;BME280;2507;50.392;7.482;2024-01-25T02:50:10;102018.16;;;11.19;59.42
4981;BME280;2507;50.392;7.482;2024-01-25T02:52:35;102010.19;;;11.21;59.34
4981;BME280;2507;50.392;7.482;2024-01-25T02:55:00;102012.66;;;11.24;59.28
4981;BME280;2507;50.392;7.482;2024-01-25T02:57:26;102005.34;;;11.13;59.38
4981;BME280;2507;50.392;7.482;2024-01-25T02:59:51;102005.63;;;11.07;59.69
4981;BME280;2507;50.392;7.482;2024-01-25T03:02:16;102012.69;;;11.07;60.00
4981;BME280;2507;50.392;7.482;2024-01-25T03:04:44;102024.19;;;11.04;59.92
4981;BME280;2507;50.392;7.482;2024-01-25T03:07:09;102015.91;;;10.95;60.08
4981;BME280;2507;50.392;7.482;2024-01-25T03:09:35;102016.69;;;10.97;59.83
4981;BME280;2507;50.392;7.482;2024-01-25T03:12:00;102013.91;;;11.00;59.50
4981;BME280;2507;50.392;7.482;2024-01-25T03:14:25;102019.22;;;10.98;59.65
4981;BME280;2507;50.392;7.482;2024-01-25T03:16:50;102020.00;;;11.00;59.51
4981;BME280;2507;50.392;7.482;2024-01-25T03:19:16;102017.75;;;10.93;59.68
4981;BME280;2507;50.392;7.482;2024-01-25T03:21:41;102012.81;;;10.87;59.96
4981;BME280;2507;50.392;7.482;2024-01-25T03:24:06;102016.75;;;10.95;59.68
4981;BME280;2507;50.392;7.482;2024-01-25T03:26:31;102018.16;;;11.02;59.58
4981;BME280;2507;50.392;7.482;2024-01-25T03:28:57;102016.09;;;11.09;59.35
4981;BME280;2507;50.392;7.482;2024-01-25T03:31:22;102013.75;;;11.03;59.65
4981;BME280;2507;50.392;7.482;2024-01-25T03:33:47;102018.44;;;10.96;59.98
4981;BME280;2507;50.392;7.482;2024-01-25T03:36:16;102020.25;;;10.96;60.05
4981;BME280;2507;50.392;7.482;2024-01-25T03:38:41;102010.53;;;10.98;59.67
4981;BME280;2507;50.392;7.482;2024-01-25T03:41:07;102027.44;;;10.92;60.06
4981;BME280;2507;50.392;7.482;2024-01-25T03:43:32;102015.28;;;10.90;60.39
4981;BME280;2507;50.392;7.482;2024-01-25T03:45:58;102010.72;;;10.93;60.18
4981;BME280;2507;50.392;7.482;2024-01-25T03:48:23;102003.00;;;10.90;60.08
4981;BME280;2507;50.392;7.482;2024-01-25T03:50:48;102008.66;;;11.00;59.87
4981;BME280;2507;50.392;7.482;2024-01-25T03:53:13;102009.94;;;10.91;59.92
4981;BME280;2507;50.392;7.482;2024-01-25T03:55:40;102016.53;;;10.83;60.30
4981;BME280;2507;50.392;7.482;2024-01-25T03:58:05;102011.09;;;10.86;60.24
4981;BME280;2507;50.392;7.482;2024-01-25T04:00:31;102014.81;;;10.82;60.73
4981;BME280;2507;50.392;7.482;2024-01-25T04:02:56;102009.94;;;10.74;60.97
4981;BME280;2507;50.392;7.482;2024-01-25T04:05:21;102021.03;;;10.62;61.24
4981;BME280;2507;50.392;7.482;2024-01-25T04:07:47;102010.19;;;10.51;61.48
4981;BME280;2507;50.392;7.482;2024-01-25T04:10:12;102019.00;;;10.50;61.66
4981;BME280;2507;50.392;7.482;2024-01-25T04:12:37;102026.09;;;10.48;61.36
4981;BME280;2507;50.392;7.482;2024-01-25T04:15:03;102030.63;;;10.45;62.13
4981;BME280;2507;50.392;7.482;2024-01-25T04:17:28;102025.13;;;10.32;62.36
4981;BME280;2507;50.392;7.482;2024-01-25T04:19:54;102036.25;;;10.18;62.73
4981;BME280;2507;50.392;7.482;2024-01-25T04:22:19;102038.16;;;10.15;62.62
4981;BME280;2507;50.392;7.482;2024-01-25T04:24:44;102042.19;;;10.22;62.60
4981;BME280;2507;50.392;7.482;2024-01-25T04:27:10;102047.09;;;10.29;62.58
4981;BME280;2507;50.392;7.482;2024-01-25T04:29:39;102051.34;;;10.32;62.42
4981;BME280;2507;50.392;7.482;2024-01-25T04:32:05;102048.88;;;10.29;62.68
4981;BME280;2507;50.392;7.482;2024-01-25T04:34:31;102052.00;;;10.37;62.55
4981;BME280;2507;50.392;7.482;2024-01-25T04:36:56;102057.78;;;10.44;61.88
4981;BME280;2507;50.392;7.482;2024-01-25T04:39:21;102062.84;;;10.48;61.99
4981;BME280;2507;50.392;7.482;2024-01-25T04:41:47;102062.75;;;10.50;61.78
4981;BME280;2507;50.392;7.482;2024-01-25T04:44:12;102075.03;;;10.49;61.70
4981;BME280;2507;50.392;7.482;2024-01-25T04:46:38;102077.22;;;10.58;61.62
4981;BME280;2507;50.392;7.482;2024-01-25T04:49:03;102084.38;;;10.55;61.64
4981;BME280;2507;50.392;7.482;2024-01-25T04:51:28;102087.88;;;10.55;61.88
4981;BME280;2507;50.392;7.482;2024-01-25T04:53:54;102090.22;;;10.61;61.57
4981;BME280;2507;50.392;7.482;2024-01-25T04:56:19;102080.69;;;10.59;61.79
4981;BME280;2507;50.392;7.482;2024-01-25T04:58:44;102084.97;;;10.61;61.65
4981;BME280;2507;50.392;7.482;2024-01-25T05:01:10;102085.16;;;10.57;61.65
4981;BME280;2507;50.392;7.482;2024-01-25T05:03:35;102083.47;;;10.56;62.15
4981;BME280;2507;50.392;7.482;2024-01-25T05:06:01;102076.09;;;10.45;62.34
4981;BME280;2507;50.392;7.482;2024-01-25T05:08:26;102081.41;;;10.44;62.58
4981;BME280;2507;50.392;7.482;2024-01-25T05:10:51;102079.16;;;10.36;62.87
4981;BME280;2507;50.392;7.482;2024-01-25T05:13:18;102081.50;;;10.23;63.09
4981;BME280;2507;50.392;7.482;2024-01-25T05:15:44;102078.44;;;10.14;63.68
4981;BME280;2507;50.392;7.482;2024-01-25T05:18:09;102078.66;;;10.08;63.74
4981;BME280;2507;50.392;7.482;2024-01-25T05:20:34;102064.84;;;10.04;64.00
4981;BME280;2507;50.392;7.482;2024-01-25T05:23:02;102061.66;;;9.98;64.36
4981;BME280;2507;50.392;7.482;2024-01-25T05:25:28;102067.69;;;10.00;64.37
4981;BME280;2507;50.392;7.482;2024-01-25T05:27:54;102071.38;;;9.96;64.47
4981;BME280;2507;50.392;7.482;2024-01-25T05:30:20;102064.28;;;9.98;64.55
4981;BME280;2507;50.392;7.482;2024-01-25T05:32:45;102070.25;;;10.01;64.63
4981;BME280;2507;50.392;7.482;2024-01-25T05:35:13;102072.72;;;10.04;64.26
4981;BME280;2507;50.392;7.482;2024-01-25T05:37:38;102072.72;;;10.04;64.37
4981;BME280;2507;50.392;7.482;2024-01-25T05:40:04;102084.13;;;10.03;64.44
4981;BME280;2507;50.392;7.482;2024-01-25T05:42:30;102083.69;;;9.94;64.45
4981;BME280;2507;50.392;7.482;2024-01-25T05:44:55;102091.75;;;9.89;64.74
4981;BME280;2507;50.392;7.482;2024-01-25T05:47:20;102104.53;;;9.77;65.15
4981;BME280;2507;50.392;7.482;2024-01-25T05:49:46;102099.44;;;9.74;65.69
4981;BME280;2507;50.392;7.482;2024-01-25T05:52:12;102097.59;;;9.76;65.04
4981;BME280;2507;50.392;7.482;2024-01-25T05:54:37;102108.72;;;9.81;64.55
4981;BME280;2507;50.392;7.482;2024-01-25T05:57:03;102111.59;;;9.75;64.66
4981;BME280;2507;50.392;7.482;2024-01-25T05:59:29;102114.91;;;9.80;64.70
4981;BME280;2507;50.392;7.482;2024-01-25T06:01:54;102124.69;;;9.76;64.70
4981;BME280;2507;50.392;7.482;2024-01-25T06:04:20;102126.22;;;9.80;64.62
4981;BME280;2507;50.392;7.482;2024-01-25T06:06:45;102124.06;;;9.90;63.95
4981;BME280;2507;50.392;7.482;2024-01-25T06:09:10;102119.47;;;9.95;63.75
4981;BME280;2507;50.392;7.482;2024-01-25T06:11:36;102125.56;;;9.95;63.68
4981;BME280;2507;50.392;7.482;2024-01-25T06:14:04;102125.38;;;10.00;63.52
4981;BME280;2507;50.392;7.482;2024-01-25T06:16:30;102126.81;;;9.87;63.61
4981;BME280;2507;50.392;7.482;2024-01-25T06:18:55;102129.06;;;9.76;63.89
4981;BME280;2507;50.392;7.482;2024-01-25T06:21:21;102127.81;;;9.84;63.98
4981;BME280;2507;50.392;7.482;2024-01-25T06:23:46;102126.03;;;9.85;63.48
4981;BME280;2507;50.392;7.482;2024-01-25T06:26:11;102132.41;;;9.79;63.12
4981;BME280;2507;50.392;7.482;2024-01-25T06:28:37;102131.84;;;9.71;63.28
4981;BME280;2507;50.392;7.482;2024-01-25T06:31:02;102131.41;;;9.62;63.52
4981;BME280;2507;50.392;7.482;2024-01-25T06:33:27;102141.66;;;9.46;63.76
4981;BME280;2507;50.392;7.482;2024-01-25T06:35:54;102143.81;;;9.37;64.30
4981;BME280;2507;50.392;7.482;2024-01-25T06:38:19;102150.03;;;9.34;64.51
4981;BME280;2507;50.392;7.482;2024-01-25T06:40:44;102147.66;;;9.28;64.54
4981;BME280;2507;50.392;7.482;2024-01-25T06:43:09;102149.78;;;9.18;64.70
4981;BME280;2507;50.392;7.482;2024-01-25T06:45:36;102150.38;;;9.05;64.80
4981;BME280;2507;50.392;7.482;2024-01-25T06:48:02;102158.56;;;8.96;64.91
4981;BME280;2507;50.392;7.482;2024-01-25T06:50:27;102157.28;;;8.84;65.72
4981;BME280;2507;50.392;7.482;2024-01-25T06:52:52;102161.53;;;8.65;66.50
4981;BME280;2507;50.392;7.482;2024-01-25T06:55:19;102161.69;;;8.61;66.73
4981;BME280;2507;50.392;7.482;2024-01-25T06:57:44;102172.94;;;8.63;67.04
4981;BME280;2507;50.392;7.482;2024-01-25T07:00:09;102163.34;;;8.63;66.96
4981;BME280;2507;50.392;7.482;2024-01-25T07:02:38;102165.84;;;8.66;67.08
4981;BME280;2507;50.392;7.482;2024-01-25T07:05:04;102170.13;;;8.67;67.20
4981;BME280;2507;50.392;7.482;2024-01-25T07:07:29;102170.06;;;8.70;66.99
4981;BME280;2507;50.392;7.482;2024-01-25T07:09:55;102178.78;;;8.69;66.78
4981;BME280;2507;50.392;7.482;2024-01-25T07:12:20;102177.97;;;8.69;66.88
4981;BME280;2507;50.392;7.482;2024-01-25T07:14:46;102168.72;;;8.82;67.11
4981;BME280;2507;50.392;7.482;2024-01-25T07:17:11;102180.72;;;8.87;65.75
4981;BME280;2507;50.392;7.482;2024-01-25T07:19:36;102182.16;;;8.73;66.35
4981;BME280;2507;50.392;7.482;2024-01-25T07:22:02;102178.13;;;8.64;66.43
4981;BME280;2507;50.392;7.482;2024-01-25T07:24:27;102174.69;;;8.62;66.45
4981;BME280;2507;50.392;7.482;2024-01-25T07:26:52;102180.34;;;8.52;66.77
4981;BME280;2507;50.392;7.482;2024-01-25T07:29:17;102179.31;;;8.56;66.78
4981;BME280;2507;50.392;7.482;2024-01-25T07:31:43;102171.81;;;8.47;66.74
4981;BME280;2507;50.392;7.482;2024-01-25T07:34:08;102171.13;;;8.42;66.78
4981;BME280;2507;50.392;7.482;2024-01-25T07:36:33;102176.13;;;8.48;66.77
4981;BME280;2507;50.392;7.482;2024-01-25T07:38:59;102167.88;;;8.58;66.26
4981;BME280;2507;50.392;7.482;2024-01-25T07:41:24;102176.78;;;8.54;66.52
4981;BME280;2507;50.392;7.482;2024-01-25T07:43:49;102174.59;;;8.65;65.51
4981;BME280;2507;50.392;7.482;2024-01-25T07:46:15;102171.34;;;8.36;65.80
4981;BME280;2507;50.392;7.482;2024-01-25T07:48:40;102173.84;;;8.14;66.44
4981;BME280;2507;50.392;7.482;2024-01-25T07:51:11;102179.97;;;8.13;67.09
4981;BME280;2507;50.392;7.482;2024-01-25T07:53:37;102169.13;;;8.25;66.00
4981;BME280;2507;50.392;7.482;2024-01-25T07:56:02;102170.09;;;8.46;65.21
4981;BME280;2507;50.392;7.482;2024-01-25T07:58:28;102175.34;;;8.21;64.45
4981;BME280;2507;50.392;7.482;2024-01-25T08:00:55;102177.19;;;7.93;65.57
4981;BME280;2507;50.392;7.482;2024-01-25T08:03:20;102174.38;;;7.74;65.56
4981;BME280;2507;50.392;7.482;2024-01-25T08:05:46;102178.25;;;7.89;65.12
4981;BME280;2507;50.392;7.482;2024-01-25T08:08:11;102172.56;;;8.01;65.12
4981;BME280;2507;50.392;7.482;2024-01-25T08:10:37;102182.16;;;8.27;64.38
4981;BME280;2507;50.392;7.482;2024-01-25T08:13:02;102173.75;;;8.65;63.23
4981;BME280;2507;50.392;7.482;2024-01-25T08:15:27;102173.78;;;8.86;62.89
4981;BME280;2507;50.392;7.482;2024-01-25T08:17:53;102171.09;;;8.88;62.64
4981;BME280;2507;50.392;7.482;2024-01-25T08:20:18;102173.72;;;8.88;62.82
4981;BME280;2507;50.392;7.482;2024-01-25T08:22:43;102166.78;;;8.87;62.90
4981;BME280;2507;50.392;7.482;2024-01-25T08:25:09;102170.25;;;8.87;62.76
4981;BME280;2507;50.392;7.482;2024-01-25T08:27:35;102174.59;;;8.65;63.91
4981;BME280;2507;50.392;7.482;2024-01-25T08:30:00;102168.13;;;8.52;64.82
4981;BME280;2507;50.392;7.482;2024-01-25T08:32:25;102166.84;;;8.62;64.87
4981;BME280;2507;50.392;7.482;2024-01-25T08:34:51;102172.66;;;8.70;64.95
4981;BME280;2507;50.392;7.482;2024-01-25T08:37:16;102166.72;;;8.88;64.72
4981;BME280;2507;50.392;7.482;2024-01-25T08:39:41;102176.47;;;9.06;64.51
4981;BME280;2507;50.392;7.482;2024-01-25T08:42:08;102179.28;;;9.23;64.27
4981;BME280;2507;50.392;7.482;2024-01-25T08:44:33;102171.53;;;9.42;62.94
4981;BME280;2507;50.392;7.482;2024-01-25T08:46:58;102169.81;;;9.63;62.56
4981;BME280;2507;50.392;7.482;2024-01-25T08:49:24;102172.44;;;9.83;62.12
4981;BME280;2507;50.392;7.482;2024-01-25T08:51:49;102174.81;;;9.89;62.04
4981;BME280;2507;50.392;7.482;2024-01-25T08:54:15;102170.72;;;10.02;61.52
4981;BME280;2507;50.392;7.482;2024-01-25T08:56:40;102162.38;;;10.14;61.33
4981;BME280;2507;50.392;7.482;2024-01-25T08:59:06;102168.78;;;10.27;60.81
4981;BME280;2507;50.392;7.482;2024-01-25T09:01:32;102167.94;;;10.26;60.24
4981;BME280;2507;50.392;7.482;2024-01-25T09:03:58;102170.91;;;10.38;59.73
4981;BME280;2507;50.392;7.482;2024-01-25T09:06:27;102184.84;;;10.58;59.36
4981;BME280;2507;50.392;7.482;2024-01-25T09:08:53;102178.19;;;10.70;58.71
4981;BME280;2507;50.392;7.482;2024-01-25T09:11:18;102184.34;;;10.87;58.03
4981;BME280;2507;50.392;7.482;2024-01-25T09:13:44;102180.38;;;10.79;58.16
4981;BME280;2507;50.392;7.482;2024-01-25T09:16:10;102173.78;;;10.89;57.75
4981;BME280;2507;50.392;7.482;2024-01-25T09:18:35;102172.66;;;10.94;57.70
4981;BME280;2507;50.392;7.482;2024-01-25T09:21:01;102172.16;;;11.05;57.36
4981;BME280;2507;50.392;7.482;2024-01-25T09:23:26;102169.94;;;11.14;57.01
4981;BME280;2507;50.392;7.482;2024-01-25T09:25:51;102173.28;;;11.18;56.59
4981;BME280;2507;50.392;7.482;2024-01-25T09:28:17;102172.88;;;11.25;56.42
4981;BME280;2507;50.392;7.482;2024-01-25T09:30:42;102167.94;;;11.37;56.27
4981;BME280;2507;50.392;7.482;2024-01-25T09:33:07;102166.91;;;11.58;55.84
4981;BME280;2507;50.392;7.482;2024-01-25T09:35:32;102173.50;;;11.66;55.56
4981;BME280;2507;50.392;7.482;2024-01-25T09:37:58;102176.75;;;11.71;55.32
4981;BME280;2507;50.392;7.482;2024-01-25T09:40:24;102172.53;;;11.69;55.50
4981;BME280;2507;50.392;7.482;2024-01-25T09:42:51;102172.88;;;11.78;54.97
4981;BME280;2507;50.392;7.482;2024-01-25T09:45:17;102167.06;;;12.06;54.50
4981;BME280;2507;50.392;7.482;2024-01-25T09:47:46;102170.31;;;12.11;54.03
4981;BME280;2507;50.392;7.482;2024-01-25T09:50:13;102182.25;;;12.18;53.42
4981;BME280;2507;50.392;7.482;2024-01-25T09:52:39;102190.06;;;12.19;53.88
4981;BME280;2507;50.392;7.482;2024-01-25T09:55:06;102216.44;;;12.01;53.91
4981;BME280;2507;50.392;7.482;2024-01-25T09:57:35;102216.94;;;12.09;53.97
4981;BME280;2507;50.392;7.482;2024-01-25T10:00:03;102215.22;;;12.25;53.59
4981;BME280;2507;50.392;7.482;2024-01-25T10:02:28;102197.28;;;12.31;53.07
4981;BME280;2507;50.392;7.482;2024-01-25T10:04:54;102192.97;;;12.63;52.37
4981;BME280;2507;50.392;7.482;2024-01-25T10:07:41;102199.16;;;12.62;51.67
4981;BME280;2507;50.392;7.482;2024-01-25T10:10:07;102189.88;;;12.55;52.20
4981;BME280;2507;50.392;7.482;2024-01-25T10:12:33;102190.47;;;12.45;51.25
4981;BME280;2507;50.392;7.482;2024-01-25T10:14:59;102185.28;;;12.43;51.98
4981;BME280;2507;50.392;7.482;2024-01-25T10:17:24;102191.16;;;12.48;52.41
4981;BME280;2507;50.392;7.482;2024-01-25T10:19:49;102192.00;;;12.49;52.76
4981;BME280;2507;50.392;7.482;2024-01-25T10:22:15;102202.88;;;12.58;52.81
4981;BME280;2507;50.392;7.482;2024-01-25T10:24:40;102200.13;;;12.44;53.33
4981;BME280;2507;50.392;7.482;2024-01-25T10:27:07;102203.78;;;12.42;53.24
4981;BME280;2507;50.392;7.482;2024-01-25T10:29:34;102212.38;;;12.45;53.24
4981;BME280;2507;50.392;7.482;2024-01-25T10:32:00;102207.63;;;12.52;52.95
4981;BME280;2507;50.392;7.482;2024-01-25T10:34:26;102201.47;;;12.68;51.94
4981;BME280;2507;50.392;7.482;2024-01-25T10:36:53;102209.19;;;12.71;52.33
4981;BME280;2507;50.392;7.482;2024-01-25T10:39:21;102205.47;;;12.75;52.05
4981;BME280;2507;50.392;7.482;2024-01-25T10:41:47;102202.16;;;12.87;51.81
4981;BME280;2507;50.392;7.482;2024-01-25T10:44:16;102199.06;;;13.12;51.33
4981;BME280;2507;50.392;7.482;2024-01-25T10:46:43;102193.88;;;13.10;50.80
4981;BME280;2507;50.392;7.482;2024-01-25T10:49:11;102197.34;;;13.11;51.39
4981;BME280;2507;50.392;7.482;2024-01-25T10:51:37;102206.88;;;13.13;50.78
4981;BME280;2507;50.392;7.482;2024-01-25T10:54:04;102202.28;;;13.32;50.67
4981;BME280;2507;50.392;7.482;2024-01-25T10:56:32;102194.59;;;13.44;50.34
4981;BME280;2507;50.392;7.482;2024-01-25T10:58:57;102185.06;;;13.57;49.82
4981;BME280;2507;50.392;7.482;2024-01-25T11:01:23;102182.69;;;13.37;49.77
4981;BME280;2507;50.392;7.482;2024-01-25T11:03:49;102179.88;;;13.55;49.77
4981;BME280;2507;50.392;7.482;2024-01-25T11:06:14;102182.31;;;13.58;50.14
4981;BME280;2507;50.392;7.482;2024-01-25T11:08:40;102174.16;;;13.63;49.83
4981;BME280;2507;50.392;7.482;2024-01-25T11:11:13;102176.22;;;13.58;49.92
4981;BME280;2507;50.392;7.482;2024-01-25T11:13:42;102167.56;;;13.70;49.90
4981;BME280;2507;50.392;7.482;2024-01-25T11:16:18;102161.06;;;13.91;49.28
4981;BME280;2507;50.392;7.482;2024-01-25T11:18:54;102156.56;;;14.21;49.06
4981;BME280;2507;50.392;7.482;2024-01-25T11:21:29;102150.75;;;14.30;48.67
4981;BME280;2507;50.392;7.482;2024-01-25T11:24:04;102156.56;;;14.35;48.52
4981;BME280;2507;50.392;7.482;2024-01-25T11:26:32;102153.28;;;14.31;48.97
4981;BME280;2507;50.392;7.482;2024-01-25T11:28:57;102141.50;;;14.37;48.08
4981;BME280;2507;50.392;7.482;2024-01-25T11:31:26;102134.59;;;14.34;48.10
4981;BME280;2507;50.392;7.482;2024-01-25T11:33:56;102124.13;;;14.47;47.90
4981;BME280;2507;50.392;7.482;2024-01-25T11:36:22;102114.78;;;13.99;49.05
4981;BME280;2507;50.392;7.482;2024-01-25T11:38:47;102112.13;;;13.85;50.16
4981;BME280;2507;50.392;7.482;2024-01-25T11:41:13;102113.34;;;14.08;49.27
4981;BME280;2507;50.392;7.482;2024-01-25T11:43:40;102116.25;;;13.89;49.80
4981;BME280;2507;50.392;7.482;2024-01-25T11:46:05;102116.84;;;13.94;49.75
4981;BME280;2507;50.392;7.482;2024-01-25T11:48:30;102118.56;;;14.23;49.24
4981;BME280;2507;50.392;7.482;2024-01-25T11:50:58;102107.25;;;14.36;49.12
4981;BME280;2507;50.392;7.482;2024-01-25T11:53:23;102114.00;;;14.25;49.33
4981;BME280;2507;50.392;7.482;2024-01-25T11:55:49;102103.34;;;14.13;49.96
4981;BME280;2507;50.392;7.482;2024-01-25T11:58:15;102097.81;;;14.03;50.39
4981;BME280;2507;50.392;7.482;2024-01-25T12:00:41;102100.50;;;14.02;50.40
4981;BME280;2507;50.392;7.482;2024-01-25T12:03:07;102103.94;;;14.18;50.25
4981;BME280;2507;50.392;7.482;2024-01-25T12:05:33;102097.31;;;14.11;50.41
4981;BME280;2507;50.392;7.482;2024-01-25T12:07:59;102084.56;;;13.75;51.42
4981;BME280;2507;50.392;7.482;2024-01-25T12:10:24;102081.16;;;13.59;51.94
4981;BME280;2507;50.392;7.482;2024-01-25T12:12:51;102070.72;;;13.58;52.02
4981;BME280;2507;50.392;7.482;2024-01-25T12:15:16;102063.34;;;13.49;52.37
4981;BME280;2507;50.392;7.482;2024-01-25T12:17:42;102073.13;;;13.47;52.68
4981;BME280;2507;50.392;7.482;2024-01-25T12:20:08;102062.47;;;13.34;53.24
4981;BME280;2507;50.392;7.482;2024-01-25T12:22:36;102064.91;;;13.37;52.94
4981;BME280;2507;50.392;7.482;2024-01-25T12:25:02;102059.00;;;13.48;52.66
4981;BME280;2507;50.392;7.482;2024-01-25T12:27:28;102062.97;;;13.55;52.33
4981;BME280;2507;50.392;7.482;2024-01-25T12:29:56;102065.03;;;13.64;52.65
4981;BME280;2507;50.392;7.482;2024-01-25T12:32:21;102069.44;;;13.49;52.46
4981;BME280;2507;50.392;7.482;2024-01-25T12:35:00;102049.97;;;13.52;52.34
4981;BME280;2507;50.392;7.482;2024-01-25T12:37:26;102035.81;;;13.39;53.15
4981;BME280;2507;50.392;7.482;2024-01-25T12:39:53;102023.03;;;13.47;53.29
4981;BME280;2507;50.392;7.482;2024-01-25T12:42:19;102041.22;;;13.65;53.13
4981;BME280;2507;50.392;7.482;2024-01-25T12:44:44;102039.91;;;13.72;52.86
4981;BME280;2507;50.392;7.482;2024-01-25T12:47:10;102043.38;;;13.59;52.98
4981;BME280;2507;50.392;7.482;2024-01-25T12:49:39;102042.34;;;13.75;52.74
4981;BME280;2507;50.392;7.482;2024-01-25T12:52:04;102044.81;;;13.92;52.16
4981;BME280;2507;50.392;7.482;2024-01-25T12:54:29;102049.78;;;14.11;51.68
4981;BME280;2507;50.392;7.482;2024-01-25T12:56:55;102042.34;;;14.31;51.03
4981;BME280;2507;50.392;7.482;2024-01-25T12:59:20;102026.31;;;14.20;50.82
4981;BME280;2507;50.392;7.482;2024-01-25T13:01:45;102015.47;;;14.11;50.85
4981;BME280;2507;50.392;7.482;2024-01-25T13:04:11;102018.22;;;13.95;51.35